KMJ weather

Kumamoto Airport
Kumamoto, Kumamoto Prefecture, Japan

Public forecast

Using degrees Celsius for public forecast. Weather courtesy of forecast.io.

METAR (pilot weather report)

Report is more than 2 hours old.

Retrieved 2019/05/19 12:00 UTC (6 hours ago):

RJFT 191200Z 08009KT 050V130 9999 FEW020 BKN090 23/18 Q1010

TAF (pilot weather forecast)

Retrieved 2019/05/19 12:30 UTC (5 hours ago):

TAF RJFT 191106Z 1912/2018 09006KT 9999 -SHRA FEW010 SCT020 BKN040 TEMPO 1912/1915 10015G25KT TEMPO 1918/2000 4000 -SHRA BR FEW002 SCT005 BKN008 BECMG 1919/1921 23008KT TEMPO 2006/2012 4000 -SHRA BR FEW002 SCT005 BKN008